sensor_id;sensor_type;location;lat;lon;timestamp;temperature;humidity
14727;DHT22;7454;51.256;8.176;2022-07-18T00:00:15;15.00;60.20
14727;DHT22;7454;51.256;8.176;2022-07-18T00:02:41;14.90;60.10
14727;DHT22;7454;51.256;8.176;2022-07-18T00:05:07;14.90;60.10
14727;DHT22;7454;51.256;8.176;2022-07-18T00:07:33;14.80;60.00
14727;DHT22;7454;51.256;8.176;2022-07-18T00:09:59;14.80;60.10
14727;DHT22;7454;51.256;8.176;2022-07-18T00:12:25;14.80;60.00
14727;DHT22;7454;51.256;8.176;2022-07-18T00:14:51;14.80;60.00
14727;DHT22;7454;51.256;8.176;2022-07-18T00:17:17;14.80;60.20
14727;DHT22;7454;51.256;8.176;2022-07-18T00:19:43;14.80;60.20
14727;DHT22;7454;51.256;8.176;2022-07-18T00:22:09;14.70;60.30
14727;DHT22;7454;51.256;8.176;2022-07-18T00:24:35;14.70;60.30
14727;DHT22;7454;51.256;8.176;2022-07-18T00:27:03;14.70;60.10
14727;DHT22;7454;51.256;8.176;2022-07-18T00:29:30;14.60;60.20
14727;DHT22;7454;51.256;8.176;2022-07-18T00:31:56;14.60;60.40
14727;DHT22;7454;51.256;8.176;2022-07-18T00:34:22;14.50;60.20
14727;DHT22;7454;51.256;8.176;2022-07-18T00:36:48;14.40;60.30
14727;DHT22;7454;51.256;8.176;2022-07-18T00:39:14;14.40;60.40
14727;DHT22;7454;51.256;8.176;2022-07-18T00:41:45;14.40;60.30
14727;DHT22;7454;51.256;8.176;2022-07-18T00:44:22;14.40;60.40
14727;DHT22;7454;51.256;8.176;2022-07-18T00:46:55;14.30;60.20
14727;DHT22;7454;51.256;8.176;2022-07-18T00:49:24;14.30;60.10
14727;DHT22;7454;51.256;8.176;2022-07-18T00:51:51;14.20;60.40
14727;DHT22;7454;51.256;8.176;2022-07-18T00:54:17;14.20;60.40
14727;DHT22;7454;51.256;8.176;2022-07-18T00:56:44;14.20;60.30
14727;DHT22;7454;51.256;8.176;2022-07-18T00:59:11;14.20;60.40
14727;DHT22;7454;51.256;8.176;2022-07-18T01:01:38;14.20;60.50
14727;DHT22;7454;51.256;8.176;2022-07-18T01:04:16;14.10;60.40
14727;DHT22;7454;51.256;8.176;2022-07-18T01:06:45;14.10;60.40
14727;DHT22;7454;51.256;8.176;2022-07-18T01:09:12;14.10;60.40
14727;DHT22;7454;51.256;8.176;2022-07-18T01:11:38;14.00;60.30
14727;DHT22;7454;51.256;8.176;2022-07-18T01:14:05;14.00;60.50
14727;DHT22;7454;51.256;8.176;2022-07-18T01:16:32;14.00;60.50
14727;DHT22;7454;51.256;8.176;2022-07-18T01:18:59;14.00;60.50
14727;DHT22;7454;51.256;8.176;2022-07-18T01:21:25;13.80;60.50
14727;DHT22;7454;51.256;8.176;2022-07-18T01:23:51;13.90;60.50
14727;DHT22;7454;51.256;8.176;2022-07-18T01:26:17;13.90;60.60
14727;DHT22;7454;51.256;8.176;2022-07-18T01:28:43;13.90;60.60
14727;DHT22;7454;51.256;8.176;2022-07-18T01:31:10;13.80;60.40
14727;DHT22;7454;51.256;8.176;2022-07-18T01:33:36;13.80;60.40
14727;DHT22;7454;51.256;8.176;2022-07-18T01:36:04;13.70;60.40
14727;DHT22;7454;51.256;8.176;2022-07-18T01:38:31;13.70;60.40
14727;DHT22;7454;51.256;8.176;2022-07-18T01:40:59;13.70;60.50
14727;DHT22;7454;51.256;8.176;2022-07-18T01:43:26;13.60;60.30
14727;DHT22;7454;51.256;8.176;2022-07-18T01:45:53;13.60;60.40
14727;DHT22;7454;51.256;8.176;2022-07-18T01:48:19;13.70;60.50
14727;DHT22;7454;51.256;8.176;2022-07-18T01:50:46;13.50;60.30
14727;DHT22;7454;51.256;8.176;2022-07-18T01:53:12;13.60;60.30
14727;DHT22;7454;51.256;8.176;2022-07-18T01:55:38;13.60;60.40
14727;DHT22;7454;51.256;8.176;2022-07-18T01:58:05;13.50;60.30
14727;DHT22;7454;51.256;8.176;2022-07-18T02:00:31;13.60;60.40
14727;DHT22;7454;51.256;8.176;2022-07-18T02:02:57;13.50;60.40
14727;DHT22;7454;51.256;8.176;2022-07-18T02:05:23;13.50;60.50
14727;DHT22;7454;51.256;8.176;2022-07-18T02:07:49;13.50;60.50
14727;DHT22;7454;51.256;8.176;2022-07-18T02:10:17;13.50;60.60
14727;DHT22;7454;51.256;8.176;2022-07-18T02:12:45;13.40;60.50
14727;DHT22;7454;51.256;8.176;2022-07-18T02:15:12;13.40;60.60
14727;DHT22;7454;51.256;8.176;2022-07-18T02:17:39;13.40;60.60
14727;DHT22;7454;51.256;8.176;2022-07-18T02:20:08;13.40;60.60
14727;DHT22;7454;51.256;8.176;2022-07-18T02:22:35;13.30;60.60
14727;DHT22;7454;51.256;8.176;2022-07-18T02:25:03;13.30;60.60
14727;DHT22;7454;51.256;8.176;2022-07-18T02:27:29;13.20;60.60
14727;DHT22;7454;51.256;8.176;2022-07-18T02:29:55;13.30;60.60
14727;DHT22;7454;51.256;8.176;2022-07-18T02:32:21;13.20;60.60
14727;DHT22;7454;51.256;8.176;2022-07-18T02:34:48;13.20;60.60
14727;DHT22;7454;51.256;8.176;2022-07-18T02:37:14;13.20;60.60
14727;DHT22;7454;51.256;8.176;2022-07-18T02:39:40;13.20;60.60
14727;DHT22;7454;51.256;8.176;2022-07-18T02:42:07;13.20;60.60
14727;DHT22;7454;51.256;8.176;2022-07-18T02:44:33;13.00;60.60
14727;DHT22;7454;51.256;8.176;2022-07-18T02:46:59;13.10;60.60
14727;DHT22;7454;51.256;8.176;2022-07-18T02:49:25;13.10;60.60
14727;DHT22;7454;51.256;8.176;2022-07-18T02:51:58;13.00;60.60
14727;DHT22;7454;51.256;8.176;2022-07-18T02:54:26;13.00;60.60
14727;DHT22;7454;51.256;8.176;2022-07-18T02:56:53;13.00;60.70
14727;DHT22;7454;51.256;8.176;2022-07-18T02:59:19;13.00;60.70
14727;DHT22;7454;51.256;8.176;2022-07-18T03:01:46;13.00;60.70
14727;DHT22;7454;51.256;8.176;2022-07-18T03:04:15;13.00;60.70
14727;DHT22;7454;51.256;8.176;2022-07-18T03:06:41;12.90;60.70
14727;DHT22;7454;51.256;8.176;2022-07-18T03:09:08;12.90;60.60
14727;DHT22;7454;51.256;8.176;2022-07-18T03:11:33;12.90;60.70
14727;DHT22;7454;51.256;8.176;2022-07-18T03:13:59;12.90;60.70
14727;DHT22;7454;51.256;8.176;2022-07-18T03:16:25;12.80;60.70
14727;DHT22;7454;51.256;8.176;2022-07-18T03:18:51;12.80;60.70
14727;DHT22;7454;51.256;8.176;2022-07-18T03:21:17;12.70;60.60
14727;DHT22;7454;51.256;8.176;2022-07-18T03:23:42;12.70;60.60
14727;DHT22;7454;51.256;8.176;2022-07-18T03:26:08;12.70;60.70
14727;DHT22;7454;51.256;8.176;2022-07-18T03:28:34;12.70;60.60
14727;DHT22;7454;51.256;8.176;2022-07-18T03:30:59;12.70;60.70
14727;DHT22;7454;51.256;8.176;2022-07-18T03:33:26;12.60;60.70
14727;DHT22;7454;51.256;8.176;2022-07-18T03:35:52;12.70;60.80
14727;DHT22;7454;51.256;8.176;2022-07-18T03:38:18;12.70;60.70
14727;DHT22;7454;51.256;8.176;2022-07-18T03:40:44;12.60;60.80
14727;DHT22;7454;51.256;8.176;2022-07-18T03:43:10;12.60;60.80
14727;DHT22;7454;51.256;8.176;2022-07-18T03:45:35;12.60;60.80
14727;DHT22;7454;51.256;8.176;2022-07-18T03:48:01;12.60;60.80
14727;DHT22;7454;51.256;8.176;2022-07-18T03:50:27;12.50;60.80
14727;DHT22;7454;51.256;8.176;2022-07-18T03:52:54;12.50;60.80
14727;DHT22;7454;51.256;8.176;2022-07-18T03:55:20;12.50;60.90
14727;DHT22;7454;51.256;8.176;2022-07-18T03:57:46;12.50;60.80
14727;DHT22;7454;51.256;8.176;2022-07-18T04:00:13;12.60;60.90
14727;DHT22;7454;51.256;8.176;2022-07-18T04:02:45;12.60;60.80
14727;DHT22;7454;51.256;8.176;2022-07-18T04:05:13;12.50;60.70
14727;DHT22;7454;51.256;8.176;2022-07-18T04:07:40;12.50;60.70
14727;DHT22;7454;51.256;8.176;2022-07-18T04:10:08;12.60;60.80
14727;DHT22;7454;51.256;8.176;2022-07-18T04:12:53;12.50;60.80
14727;DHT22;7454;51.256;8.176;2022-07-18T04:15:22;12.60;60.80
14727;DHT22;7454;51.256;8.176;2022-07-18T04:17:49;12.50;60.80
14727;DHT22;7454;51.256;8.176;2022-07-18T04:20:17;12.60;60.80
14727;DHT22;7454;51.256;8.176;2022-07-18T04:22:54;12.60;60.80
14727;DHT22;7454;51.256;8.176;2022-07-18T04:25:24;12.70;60.90
14727;DHT22;7454;51.256;8.176;2022-07-18T04:27:52;12.60;60.90
14727;DHT22;7454;51.256;8.176;2022-07-18T04:30:21;12.70;60.90
14727;DHT22;7454;51.256;8.176;2022-07-18T04:32:48;12.70;60.70
14727;DHT22;7454;51.256;8.176;2022-07-18T04:35:14;12.60;60.80
14727;DHT22;7454;51.256;8.176;2022-07-18T04:37:41;12.60;60.80
14727;DHT22;7454;51.256;8.176;2022-07-18T04:40:08;12.60;60.80
14727;DHT22;7454;51.256;8.176;2022-07-18T04:42:35;12.70;60.90
14727;DHT22;7454;51.256;8.176;2022-07-18T04:45:03;12.70;60.90
14727;DHT22;7454;51.256;8.176;2022-07-18T04:47:30;12.70;60.90
14727;DHT22;7454;51.256;8.176;2022-07-18T04:49:56;12.80;60.90
14727;DHT22;7454;51.256;8.176;2022-07-18T04:52:22;12.80;60.80
14727;DHT22;7454;51.256;8.176;2022-07-18T04:54:48;12.80;61.00
14727;DHT22;7454;51.256;8.176;2022-07-18T04:57:16;12.90;60.80
14727;DHT22;7454;51.256;8.176;2022-07-18T04:59:43;13.00;60.80
14727;DHT22;7454;51.256;8.176;2022-07-18T05:02:11;13.10;60.90
14727;DHT22;7454;51.256;8.176;2022-07-18T05:04:38;13.00;60.70
14727;DHT22;7454;51.256;8.176;2022-07-18T05:07:05;13.10;60.70
14727;DHT22;7454;51.256;8.176;2022-07-18T05:09:32;13.10;60.80
14727;DHT22;7454;51.256;8.176;2022-07-18T05:11:58;13.30;60.80
14727;DHT22;7454;51.256;8.176;2022-07-18T05:14:24;13.20;60.70
14727;DHT22;7454;51.256;8.176;2022-07-18T05:16:50;13.30;60.70
14727;DHT22;7454;51.256;8.176;2022-07-18T05:19:16;13.30;60.70
14727;DHT22;7454;51.256;8.176;2022-07-18T05:21:45;13.40;60.90
14727;DHT22;7454;51.256;8.176;2022-07-18T05:24:11;13.40;60.80
14727;DHT22;7454;51.256;8.176;2022-07-18T05:26:37;13.50;60.80
14727;DHT22;7454;51.256;8.176;2022-07-18T05:29:03;13.50;60.70
14727;DHT22;7454;51.256;8.176;2022-07-18T05:31:29;13.60;60.80
14727;DHT22;7454;51.256;8.176;2022-07-18T05:33:55;13.70;60.90
14727;DHT22;7454;51.256;8.176;2022-07-18T05:36:21;13.80;60.90
14727;DHT22;7454;51.256;8.176;2022-07-18T05:38:46;13.80;60.90
14727;DHT22;7454;51.256;8.176;2022-07-18T05:41:12;13.90;60.90
14727;DHT22;7454;51.256;8.176;2022-07-18T05:43:38;13.90;60.80
14727;DHT22;7454;51.256;8.176;2022-07-18T05:46:04;14.00;60.90
14727;DHT22;7454;51.256;8.176;2022-07-18T05:48:30;14.00;60.90
14727;DHT22;7454;51.256;8.176;2022-07-18T05:50:56;14.10;61.00
14727;DHT22;7454;51.256;8.176;2022-07-18T05:53:22;14.10;60.90
14727;DHT22;7454;51.256;8.176;2022-07-18T05:55:48;14.10;60.80
14727;DHT22;7454;51.256;8.176;2022-07-18T05:58:14;14.20;61.00
14727;DHT22;7454;51.256;8.176;2022-07-18T06:00:39;14.30;61.10
14727;DHT22;7454;51.256;8.176;2022-07-18T06:03:06;14.40;61.00
14727;DHT22;7454;51.256;8.176;2022-07-18T06:05:31;14.40;61.20
14727;DHT22;7454;51.256;8.176;2022-07-18T06:07:57;14.50;61.20
14727;DHT22;7454;51.256;8.176;2022-07-18T06:10:25;14.50;61.30
14727;DHT22;7454;51.256;8.176;2022-07-18T06:12:54;14.60;61.20
14727;DHT22;7454;51.256;8.176;2022-07-18T06:15:20;14.70;61.30
14727;DHT22;7454;51.256;8.176;2022-07-18T06:17:46;14.70;61.40
14727;DHT22;7454;51.256;8.176;2022-07-18T06:20:12;14.80;61.50
14727;DHT22;7454;51.256;8.176;2022-07-18T06:22:38;14.80;61.50
14727;DHT22;7454;51.256;8.176;2022-07-18T06:25:04;14.90;61.40
14727;DHT22;7454;51.256;8.176;2022-07-18T06:27:31;15.00;61.50
14727;DHT22;7454;51.256;8.176;2022-07-18T06:29:57;15.10;61.50
14727;DHT22;7454;51.256;8.176;2022-07-18T06:32:24;15.30;61.50
14727;DHT22;7454;51.256;8.176;2022-07-18T06:34:50;15.30;61.50
14727;DHT22;7454;51.256;8.176;2022-07-18T06:37:16;15.40;61.50
14727;DHT22;7454;51.256;8.176;2022-07-18T06:39:42;15.50;61.50
14727;DHT22;7454;51.256;8.176;2022-07-18T06:42:07;15.70;61.40
14727;DHT22;7454;51.256;8.176;2022-07-18T06:44:33;15.80;61.50
14727;DHT22;7454;51.256;8.176;2022-07-18T06:46:59;15.90;61.40
14727;DHT22;7454;51.256;8.176;2022-07-18T06:49:25;15.90;61.50
14727;DHT22;7454;51.256;8.176;2022-07-18T06:51:52;16.00;61.40
14727;DHT22;7454;51.256;8.176;2022-07-18T06:54:18;16.10;61.50
14727;DHT22;7454;51.256;8.176;2022-07-18T06:56:45;16.30;61.60
14727;DHT22;7454;51.256;8.176;2022-07-18T06:59:11;16.40;61.70
14727;DHT22;7454;51.256;8.176;2022-07-18T07:01:37;16.50;61.70
14727;DHT22;7454;51.256;8.176;2022-07-18T07:04:03;16.70;61.50
14727;DHT22;7454;51.256;8.176;2022-07-18T07:06:29;16.80;61.70
14727;DHT22;7454;51.256;8.176;2022-07-18T07:08:55;17.00;62.00
14727;DHT22;7454;51.256;8.176;2022-07-18T07:11:21;17.10;61.80
14727;DHT22;7454;51.256;8.176;2022-07-18T07:13:48;17.30;61.80
14727;DHT22;7454;51.256;8.176;2022-07-18T07:16:14;17.40;61.50
14727;DHT22;7454;51.256;8.176;2022-07-18T07:18:39;17.60;61.30
14727;DHT22;7454;51.256;8.176;2022-07-18T07:21:06;17.70;61.00
14727;DHT22;7454;51.256;8.176;2022-07-18T07:23:35;17.80;61.00
14727;DHT22;7454;51.256;8.176;2022-07-18T07:26:00;18.10;58.80
14727;DHT22;7454;51.256;8.176;2022-07-18T07:28:26;18.20;59.90
14727;DHT22;7454;51.256;8.176;2022-07-18T07:30:52;18.40;59.50
14727;DHT22;7454;51.256;8.176;2022-07-18T07:33:18;18.60;58.60
14727;DHT22;7454;51.256;8.176;2022-07-18T07:35:43;18.70;60.20
14727;DHT22;7454;51.256;8.176;2022-07-18T07:38:09;18.80;59.70
14727;DHT22;7454;51.256;8.176;2022-07-18T07:40:43;18.90;58.20
14727;DHT22;7454;51.256;8.176;2022-07-18T07:43:13;19.20;57.30
14727;DHT22;7454;51.256;8.176;2022-07-18T07:45:40;19.40;59.60
14727;DHT22;7454;51.256;8.176;2022-07-18T07:48:07;19.40;59.30
14727;DHT22;7454;51.256;8.176;2022-07-18T07:50:33;19.60;55.30
14727;DHT22;7454;51.256;8.176;2022-07-18T07:53:00;19.80;57.60
14727;DHT22;7454;51.256;8.176;2022-07-18T07:55:26;19.90;58.00
14727;DHT22;7454;51.256;8.176;2022-07-18T07:57:54;20.10;54.10
14727;DHT22;7454;51.256;8.176;2022-07-18T08:00:20;20.20;53.40
14727;DHT22;7454;51.256;8.176;2022-07-18T08:03:05;20.40;53.90
14727;DHT22;7454;51.256;8.176;2022-07-18T08:05:35;20.60;52.50
14727;DHT22;7454;51.256;8.176;2022-07-18T08:08:04;20.70;54.30
14727;DHT22;7454;51.256;8.176;2022-07-18T08:10:31;20.80;53.30
14727;DHT22;7454;51.256;8.176;2022-07-18T08:12:57;21.00;52.70
14727;DHT22;7454;51.256;8.176;2022-07-18T08:15:24;21.10;53.10
14727;DHT22;7454;51.256;8.176;2022-07-18T08:17:50;21.40;53.10
14727;DHT22;7454;51.256;8.176;2022-07-18T08:20:16;21.60;53.60
14727;DHT22;7454;51.256;8.176;2022-07-18T08:23:02;21.80;53.90
14727;DHT22;7454;51.256;8.176;2022-07-18T08:25:30;21.90;53.30
14727;DHT22;7454;51.256;8.176;2022-07-18T08:27:59;22.00;51.20
14727;DHT22;7454;51.256;8.176;2022-07-18T08:30:25;22.20;50.10
14727;DHT22;7454;51.256;8.176;2022-07-18T08:32:52;22.30;51.00
14727;DHT22;7454;51.256;8.176;2022-07-18T08:35:18;22.40;49.40
14727;DHT22;7454;51.256;8.176;2022-07-18T08:37:44;22.50;50.30
14727;DHT22;7454;51.256;8.176;2022-07-18T08:40:10;22.50;49.70
14727;DHT22;7454;51.256;8.176;2022-07-18T08:42:37;22.60;48.20
14727;DHT22;7454;51.256;8.176;2022-07-18T08:45:04;22.80;48.50
14727;DHT22;7454;51.256;8.176;2022-07-18T08:47:31;22.90;47.50
14727;DHT22;7454;51.256;8.176;2022-07-18T08:49:59;23.00;48.60
14727;DHT22;7454;51.256;8.176;2022-07-18T08:52:27;23.00;47.20
14727;DHT22;7454;51.256;8.176;2022-07-18T08:54:54;23.10;47.40
14727;DHT22;7454;51.256;8.176;2022-07-18T08:57:23;23.20;46.50
14727;DHT22;7454;51.256;8.176;2022-07-18T08:59:49;23.40;46.00
14727;DHT22;7454;51.256;8.176;2022-07-18T09:02:15;23.50;48.40
14727;DHT22;7454;51.256;8.176;2022-07-18T09:04:42;23.50;47.20
14727;DHT22;7454;51.256;8.176;2022-07-18T09:07:10;23.70;46.20
14727;DHT22;7454;51.256;8.176;2022-07-18T09:09:56;23.60;46.20
14727;DHT22;7454;51.256;8.176;2022-07-18T09:12:24;23.50;47.10
14727;DHT22;7454;51.256;8.176;2022-07-18T09:14:51;23.40;48.30
14727;DHT22;7454;51.256;8.176;2022-07-18T09:17:20;23.40;47.20
14727;DHT22;7454;51.256;8.176;2022-07-18T09:22:42;23.50;47.20
14727;DHT22;7454;51.256;8.176;2022-07-18T09:25:12;23.60;46.00
14727;DHT22;7454;51.256;8.176;2022-07-18T09:27:42;23.70;46.40
14727;DHT22;7454;51.256;8.176;2022-07-18T09:30:32;23.80;45.50
14727;DHT22;7454;51.256;8.176;2022-07-18T09:38:30;23.70;46.70
14727;DHT22;7454;51.256;8.176;2022-07-18T09:40:55;23.70;46.80
14727;DHT22;7454;51.256;8.176;2022-07-18T09:43:23;23.70;46.60
14727;DHT22;7454;51.256;8.176;2022-07-18T09:45:52;23.70;46.10
14727;DHT22;7454;51.256;8.176;2022-07-18T09:48:25;23.70;47.70
14727;DHT22;7454;51.256;8.176;2022-07-18T09:53:40;23.80;46.10
14727;DHT22;7454;51.256;8.176;2022-07-18T09:56:09;24.00;45.40
14727;DHT22;7454;51.256;8.176;2022-07-18T09:58:55;23.90;46.10
14727;DHT22;7454;51.256;8.176;2022-07-18T10:01:22;24.00;48.10
14727;DHT22;7454;51.256;8.176;2022-07-18T10:03:49;24.00;46.80
14727;DHT22;7454;51.256;8.176;2022-07-18T10:06:16;24.00;46.00
14727;DHT22;7454;51.256;8.176;2022-07-18T10:08:43;24.20;46.80
14727;DHT22;7454;51.256;8.176;2022-07-18T10:11:10;24.20;46.40
14727;DHT22;7454;51.256;8.176;2022-07-18T10:13:37;24.60;44.90
14727;DHT22;7454;51.256;8.176;2022-07-18T10:16:04;24.70;43.40
14727;DHT22;7454;51.256;8.176;2022-07-18T10:18:32;24.80;44.80
14727;DHT22;7454;51.256;8.176;2022-07-18T10:26:24;25.00;45.10
14727;DHT22;7454;51.256;8.176;2022-07-18T10:36:40;24.70;42.60
14727;DHT22;7454;51.256;8.176;2022-07-18T10:39:13;24.70;44.70
14727;DHT22;7454;51.256;8.176;2022-07-18T10:58:14;25.00;43.70
14727;DHT22;7454;51.256;8.176;2022-07-18T11:00:37;25.00;43.70
14727;DHT22;7454;51.256;8.176;2022-07-18T11:03:08;25.00;42.50
14727;DHT22;7454;51.256;8.176;2022-07-18T11:05:46;25.10;42.80
14727;DHT22;7454;51.256;8.176;2022-07-18T11:08:17;25.10;42.70
14727;DHT22;7454;51.256;8.176;2022-07-18T11:16:10;25.20;42.70
14727;DHT22;7454;51.256;8.176;2022-07-18T11:23:53;25.10;41.70
14727;DHT22;7454;51.256;8.176;2022-07-18T11:26:24;25.10;41.60
14727;DHT22;7454;51.256;8.176;2022-07-18T11:28:58;25.10;42.20
14727;DHT22;7454;51.256;8.176;2022-07-18T11:31:25;25.10;42.20
14727;DHT22;7454;51.256;8.176;2022-07-18T11:33:51;25.10;43.30
14727;DHT22;7454;51.256;8.176;2022-07-18T11:36:19;25.10;42.90
14727;DHT22;7454;51.256;8.176;2022-07-18T11:38:52;25.30;42.70
14727;DHT22;7454;51.256;8.176;2022-07-18T11:41:21;25.50;42.60
14727;DHT22;7454;51.256;8.176;2022-07-18T11:43:50;25.50;41.20
14727;DHT22;7454;51.256;8.176;2022-07-18T11:46:21;25.40;42.10
14727;DHT22;7454;51.256;8.176;2022-07-18T11:48:57;25.50;43.50
14727;DHT22;7454;51.256;8.176;2022-07-18T11:51:23;25.60;42.80
14727;DHT22;7454;51.256;8.176;2022-07-18T11:53:51;25.50;43.10
14727;DHT22;7454;51.256;8.176;2022-07-18T11:56:20;25.50;42.50
14727;DHT22;7454;51.256;8.176;2022-07-18T11:58:49;25.60;43.30
14727;DHT22;7454;51.256;8.176;2022-07-18T12:01:15;25.60;43.60
14727;DHT22;7454;51.256;8.176;2022-07-18T12:03:51;25.60;43.20
14727;DHT22;7454;51.256;8.176;2022-07-18T12:06:24;25.90;43.10
14727;DHT22;7454;51.256;8.176;2022-07-18T12:08:56;26.00;42.40
14727;DHT22;7454;51.256;8.176;2022-07-18T12:11:28;26.10;43.80
14727;DHT22;7454;51.256;8.176;2022-07-18T12:16:44;26.40;42.90
14727;DHT22;7454;51.256;8.176;2022-07-18T12:19:14;26.40;42.90
14727;DHT22;7454;51.256;8.176;2022-07-18T12:21:42;26.40;42.50
14727;DHT22;7454;51.256;8.176;2022-07-18T12:24:28;26.20;42.40
14727;DHT22;7454;51.256;8.176;2022-07-18T12:32:53;26.10;42.20
14727;DHT22;7454;51.256;8.176;2022-07-18T12:35:33;26.10;40.90
14727;DHT22;7454;51.256;8.176;2022-07-18T12:38:13;26.00;42.10
14727;DHT22;7454;51.256;8.176;2022-07-18T12:40:46;26.00;42.50
14727;DHT22;7454;51.256;8.176;2022-07-18T12:46:15;26.00;43.40
14727;DHT22;7454;51.256;8.176;2022-07-18T12:48:41;26.20;41.50
14727;DHT22;7454;51.256;8.176;2022-07-18T12:51:09;26.20;41.70
14727;DHT22;7454;51.256;8.176;2022-07-18T12:53:41;26.20;42.20
14727;DHT22;7454;51.256;8.176;2022-07-18T12:56:07;26.40;42.00
14727;DHT22;7454;51.256;8.176;2022-07-18T12:58:33;26.50;41.20
14727;DHT22;7454;51.256;8.176;2022-07-18T13:00:59;26.40;42.50
14727;DHT22;7454;51.256;8.176;2022-07-18T13:03:26;26.50;42.50
14727;DHT22;7454;51.256;8.176;2022-07-18T13:05:52;26.50;43.20
14727;DHT22;7454;51.256;8.176;2022-07-18T13:08:18;26.50;43.90
14727;DHT22;7454;51.256;8.176;2022-07-18T13:10:44;26.50;43.70
14727;DHT22;7454;51.256;8.176;2022-07-18T13:13:10;26.50;43.10
14727;DHT22;7454;51.256;8.176;2022-07-18T13:15:37;26.50;43.00
14727;DHT22;7454;51.256;8.176;2022-07-18T13:18:04;26.60;43.20
14727;DHT22;7454;51.256;8.176;2022-07-18T13:20:29;26.70;43.40
14727;DHT22;7454;51.256;8.176;2022-07-18T13:22:56;26.80;43.10
14727;DHT22;7454;51.256;8.176;2022-07-18T13:25:22;27.00;43.10
14727;DHT22;7454;51.256;8.176;2022-07-18T13:27:48;26.90;43.90
14727;DHT22;7454;51.256;8.176;2022-07-18T13:30:15;26.90;42.60
14727;DHT22;7454;51.256;8.176;2022-07-18T13:32:41;26.80;43.00
14727;DHT22;7454;51.256;8.176;2022-07-18T13:35:11;26.80;43.20
14727;DHT22;7454;51.256;8.176;2022-07-18T13:37:37;26.80;43.50
14727;DHT22;7454;51.256;8.176;2022-07-18T13:40:03;26.80;43.90
14727;DHT22;7454;51.256;8.176;2022-07-18T13:42:32;26.80;43.60
14727;DHT22;7454;51.256;8.176;2022-07-18T13:44:58;26.90;43.30
14727;DHT22;7454;51.256;8.176;2022-07-18T13:47:24;27.10;43.20
14727;DHT22;7454;51.256;8.176;2022-07-18T13:49:50;27.10;44.10
14727;DHT22;7454;51.256;8.176;2022-07-18T13:52:17;27.30;43.00
14727;DHT22;7454;51.256;8.176;2022-07-18T13:54:43;27.40;43.40
14727;DHT22;7454;51.256;8.176;2022-07-18T13:57:09;27.40;43.80
14727;DHT22;7454;51.256;8.176;2022-07-18T13:59:35;27.40;43.00
14727;DHT22;7454;51.256;8.176;2022-07-18T14:02:01;27.40;43.50
14727;DHT22;7454;51.256;8.176;2022-07-18T14:04:26;27.30;43.80
14727;DHT22;7454;51.256;8.176;2022-07-18T14:06:52;27.20;42.20
14727;DHT22;7454;51.256;8.176;2022-07-18T14:09:18;27.20;43.10
14727;DHT22;7454;51.256;8.176;2022-07-18T14:11:44;27.10;43.90
14727;DHT22;7454;51.256;8.176;2022-07-18T14:14:10;27.00;43.30
14727;DHT22;7454;51.256;8.176;2022-07-18T14:16:36;27.00;44.80
14727;DHT22;7454;51.256;8.176;2022-07-18T14:19:03;27.00;44.40
14727;DHT22;7454;51.256;8.176;2022-07-18T14:21:29;27.00;44.40
14727;DHT22;7454;51.256;8.176;2022-07-18T14:23:55;27.10;44.10
14727;DHT22;7454;51.256;8.176;2022-07-18T14:26:21;27.10;44.50
14727;DHT22;7454;51.256;8.176;2022-07-18T14:28:47;27.30;44.80
14727;DHT22;7454;51.256;8.176;2022-07-18T14:31:13;27.50;44.20
14727;DHT22;7454;51.256;8.176;2022-07-18T14:33:43;27.60;44.70
14727;DHT22;7454;51.256;8.176;2022-07-18T14:36:08;27.50;44.80
14727;DHT22;7454;51.256;8.176;2022-07-18T14:38:34;27.50;44.60
14727;DHT22;7454;51.256;8.176;2022-07-18T14:41:00;27.50;44.60
14727;DHT22;7454;51.256;8.176;2022-07-18T14:43:25;27.50;43.90
14727;DHT22;7454;51.256;8.176;2022-07-18T14:45:51;27.40;44.80
14727;DHT22;7454;51.256;8.176;2022-07-18T14:48:17;27.50;44.90
14727;DHT22;7454;51.256;8.176;2022-07-18T14:50:43;27.50;44.10
14727;DHT22;7454;51.256;8.176;2022-07-18T14:53:09;27.50;42.80
14727;DHT22;7454;51.256;8.176;2022-07-18T14:55:35;27.80;44.10
14727;DHT22;7454;51.256;8.176;2022-07-18T14:58:01;28.00;42.90
14727;DHT22;7454;51.256;8.176;2022-07-18T15:00:28;28.10;43.50
14727;DHT22;7454;51.256;8.176;2022-07-18T15:02:54;28.10;44.20
14727;DHT22;7454;51.256;8.176;2022-07-18T15:05:20;28.10;44.30
14727;DHT22;7454;51.256;8.176;2022-07-18T15:07:46;28.10;44.50
14727;DHT22;7454;51.256;8.176;2022-07-18T15:10:12;28.10;42.80
14727;DHT22;7454;51.256;8.176;2022-07-18T15:12:38;28.20;43.00
14727;DHT22;7454;51.256;8.176;2022-07-18T15:15:05;28.20;43.10
14727;DHT22;7454;51.256;8.176;2022-07-18T15:17:32;28.20;43.10
14727;DHT22;7454;51.256;8.176;2022-07-18T15:19:58;28.30;43.60
14727;DHT22;7454;51.256;8.176;2022-07-18T15:22:23;28.30;44.30
14727;DHT22;7454;51.256;8.176;2022-07-18T15:24:49;28.20;44.30
14727;DHT22;7454;51.256;8.176;2022-07-18T15:27:15;28.30;43.90
14727;DHT22;7454;51.256;8.176;2022-07-18T15:29:41;28.40;43.70
14727;DHT22;7454;51.256;8.176;2022-07-18T15:32:07;28.30;42.40
14727;DHT22;7454;51.256;8.176;2022-07-18T15:34:38;28.40;43.20
14727;DHT22;7454;51.256;8.176;2022-07-18T15:37:04;28.30;43.10
14727;DHT22;7454;51.256;8.176;2022-07-18T15:39:31;28.30;43.60
14727;DHT22;7454;51.256;8.176;2022-07-18T15:41:57;28.40;43.70
14727;DHT22;7454;51.256;8.176;2022-07-18T15:44:23;28.50;45.00
14727;DHT22;7454;51.256;8.176;2022-07-18T15:46:49;28.70;44.40
14727;DHT22;7454;51.256;8.176;2022-07-18T15:49:15;28.70;43.00
14727;DHT22;7454;51.256;8.176;2022-07-18T15:51:41;28.60;43.80
14727;DHT22;7454;51.256;8.176;2022-07-18T15:54:16;28.80;44.40
14727;DHT22;7454;51.256;8.176;2022-07-18T15:56:42;28.70;43.70
14727;DHT22;7454;51.256;8.176;2022-07-18T15:59:09;28.60;43.90
14727;DHT22;7454;51.256;8.176;2022-07-18T16:01:34;28.60;42.90
14727;DHT22;7454;51.256;8.176;2022-07-18T16:04:01;28.60;42.80
14727;DHT22;7454;51.256;8.176;2022-07-18T16:06:27;28.50;43.20
14727;DHT22;7454;51.256;8.176;2022-07-18T16:08:53;28.40;42.80
14727;DHT22;7454;51.256;8.176;2022-07-18T16:11:19;28.30;43.40
14727;DHT22;7454;51.256;8.176;2022-07-18T16:13:45;28.30;43.50
14727;DHT22;7454;51.256;8.176;2022-07-18T16:16:12;28.30;42.50
14727;DHT22;7454;51.256;8.176;2022-07-18T16:18:38;28.20;42.20
14727;DHT22;7454;51.256;8.176;2022-07-18T16:21:04;28.20;41.80
14727;DHT22;7454;51.256;8.176;2022-07-18T16:23:30;28.20;42.10
14727;DHT22;7454;51.256;8.176;2022-07-18T16:25:56;28.20;43.00
14727;DHT22;7454;51.256;8.176;2022-07-18T16:28:21;28.10;43.20
14727;DHT22;7454;51.256;8.176;2022-07-18T16:30:48;28.00;42.50
14727;DHT22;7454;51.256;8.176;2022-07-18T16:33:15;28.10;42.70
14727;DHT22;7454;51.256;8.176;2022-07-18T16:35:41;28.10;42.30
14727;DHT22;7454;51.256;8.176;2022-07-18T16:38:06;28.00;42.90
14727;DHT22;7454;51.256;8.176;2022-07-18T16:40:33;28.00;43.70
14727;DHT22;7454;51.256;8.176;2022-07-18T16:42:59;28.00;43.20
14727;DHT22;7454;51.256;8.176;2022-07-18T16:45:25;28.10;44.30
14727;DHT22;7454;51.256;8.176;2022-07-18T16:47:51;28.20;44.80